Point Farm, Vermont
Current Conditions -  °F | °C
As of 12:53 AM on Wednesday 26 Nov 2014 (Local Time) from KPBG Reporting Station
Overcast Overcast  
Wind Chill: 38°   Ceiling: 4800
Heat Index: 38°   Visibility: 10mi
Dew Point: 22°   Wind: 3mph
Humidity: 53%   Direction: 260°W
Pressure: 30.17"   Gusts: NA
Location:  44.717°N, 73.3067°W
Report Text: KPBG 260553Z AUTO 26003KT 10SM OVC048 03/M06 A3017 RMK AO2 SLP217 T00331056 10072 20033 53039
Loading
Personal Weather Stations






























Interactive Weather Map New forecast layout! Learn more

10-Day Weather Forecast

Advertisements
Track Severe Weather on mobile